sensor_id;sensor_type;location;lat;lon;timestamp;P1;durP1;ratioP1;P2;durP2;ratioP2
19802;SDS011;66074;50.764;6.090;2023-05-21T00:02:07;8.45;;;7.75;;
19802;SDS011;66074;50.764;6.090;2023-05-21T00:04:38;8.55;;;7.75;;
19802;SDS011;66074;50.764;6.090;2023-05-21T00:07:05;7.43;;;6.82;;
19802;SDS011;66074;50.764;6.090;2023-05-21T00:09:32;8.88;;;8.07;;
19802;SDS011;66074;50.764;6.090;2023-05-21T00:11:58;8.27;;;7.57;;
19802;SDS011;66074;50.764;6.090;2023-05-21T00:14:24;9.60;;;7.90;;
19802;SDS011;66074;50.764;6.090;2023-05-21T00:16:49;9.35;;;8.52;;
19802;SDS011;66074;50.764;6.090;2023-05-21T00:19:15;9.45;;;8.50;;
19802;SDS011;66074;50.764;6.090;2023-05-21T00:21:40;9.23;;;8.38;;
19802;SDS011;66074;50.764;6.090;2023-05-21T00:24:06;9.77;;;8.88;;
19802;SDS011;66074;50.764;6.090;2023-05-21T00:26:32;9.70;;;8.75;;
19802;SDS011;66074;50.764;6.090;2023-05-21T00:28:57;9.18;;;8.38;;
19802;SDS011;66074;50.764;6.090;2023-05-21T00:31:23;10.35;;;8.45;;
19802;SDS011;66074;50.764;6.090;2023-05-21T00:33:48;9.23;;;8.43;;
19802;SDS011;66074;50.764;6.090;2023-05-21T00:36:14;13.68;;;8.52;;
19802;SDS011;66074;50.764;6.090;2023-05-21T00:38:40;9.60;;;8.30;;
19802;SDS011;66074;50.764;6.090;2023-05-21T00:41:09;10.10;;;9.20;;
19802;SDS011;66074;50.764;6.090;2023-05-21T00:43:35;9.57;;;8.57;;
19802;SDS011;66074;50.764;6.090;2023-05-21T00:46:04;9.15;;;8.40;;
19802;SDS011;66074;50.764;6.090;2023-05-21T00:48:36;8.73;;;8.02;;
19802;SDS011;66074;50.764;6.090;2023-05-21T00:51:02;10.13;;;9.23;;
19802;SDS011;66074;50.764;6.090;2023-05-21T00:53:29;9.43;;;8.52;;
19802;SDS011;66074;50.764;6.090;2023-05-21T00:55:55;9.75;;;8.45;;
19802;SDS011;66074;50.764;6.090;2023-05-21T00:58:21;9.25;;;8.40;;
19802;SDS011;66074;50.764;6.090;2023-05-21T01:00:47;8.75;;;7.95;;
19802;SDS011;66074;50.764;6.090;2023-05-21T01:03:13;9.80;;;8.85;;
19802;SDS011;66074;50.764;6.090;2023-05-21T01:05:40;9.13;;;8.23;;
19802;SDS011;66074;50.764;6.090;2023-05-21T01:08:09;8.48;;;7.70;;
19802;SDS011;66074;50.764;6.090;2023-05-21T01:10:35;9.35;;;8.55;;
19802;SDS011;66074;50.764;6.090;2023-05-21T01:13:00;10.23;;;9.23;;
19802;SDS011;66074;50.764;6.090;2023-05-21T01:15:26;10.63;;;8.75;;
19802;SDS011;66074;50.764;6.090;2023-05-21T01:17:52;10.40;;;9.13;;
19802;SDS011;66074;50.764;6.090;2023-05-21T01:20:19;9.45;;;8.55;;
19802;SDS011;66074;50.764;6.090;2023-05-21T01:22:50;9.98;;;9.07;;
19802;SDS011;66074;50.764;6.090;2023-05-21T01:25:17;10.07;;;8.93;;
19802;SDS011;66074;50.764;6.090;2023-05-21T01:27:43;11.88;;;9.65;;
19802;SDS011;66074;50.764;6.090;2023-05-21T01:30:09;10.18;;;9.18;;
19802;SDS011;66074;50.764;6.090;2023-05-21T01:32:41;10.52;;;9.60;;
19802;SDS011;66074;50.764;6.090;2023-05-21T01:35:08;10.30;;;9.23;;
19802;SDS011;66074;50.764;6.090;2023-05-21T01:37:50;10.43;;;9.50;;
19802;SDS011;66074;50.764;6.090;2023-05-21T01:42:49;10.98;;;10.07;;
19802;SDS011;66074;50.764;6.090;2023-05-21T01:45:16;11.50;;;10.30;;
19802;SDS011;66074;50.764;6.090;2023-05-21T01:47:44;12.38;;;10.40;;
19802;SDS011;66074;50.764;6.090;2023-05-21T01:50:13;11.02;;;9.93;;
19802;SDS011;66074;50.764;6.090;2023-05-21T01:52:46;10.82;;;9.82;;
19802;SDS011;66074;50.764;6.090;2023-05-21T01:55:16;12.23;;;11.13;;
19802;SDS011;66074;50.764;6.090;2023-05-21T01:57:42;11.82;;;10.73;;
19802;SDS011;66074;50.764;6.090;2023-05-21T02:00:08;11.43;;;10.45;;
19802;SDS011;66074;50.764;6.090;2023-05-21T02:02:34;12.23;;;11.20;;
19802;SDS011;66074;50.764;6.090;2023-05-21T02:05:00;12.07;;;10.98;;
19802;SDS011;66074;50.764;6.090;2023-05-21T02:07:26;11.45;;;10.45;;
19802;SDS011;66074;50.764;6.090;2023-05-21T02:09:53;12.52;;;11.32;;
19802;SDS011;66074;50.764;6.090;2023-05-21T02:12:18;12.75;;;11.57;;
19802;SDS011;66074;50.764;6.090;2023-05-21T02:14:44;12.38;;;10.32;;
19802;SDS011;66074;50.764;6.090;2023-05-21T02:17:14;12.43;;;11.23;;
19802;SDS011;66074;50.764;6.090;2023-05-21T02:19:41;12.52;;;11.32;;
19802;SDS011;66074;50.764;6.090;2023-05-21T02:22:09;12.10;;;11.10;;
19802;SDS011;66074;50.764;6.090;2023-05-21T02:24:35;13.52;;;12.32;;
19802;SDS011;66074;50.764;6.090;2023-05-21T02:27:00;12.68;;;11.60;;
19802;SDS011;66074;50.764;6.090;2023-05-21T02:29:27;12.40;;;11.30;;
19802;SDS011;66074;50.764;6.090;2023-05-21T02:31:53;12.93;;;11.82;;
19802;SDS011;66074;50.764;6.090;2023-05-21T02:34:18;13.05;;;11.90;;
19802;SDS011;66074;50.764;6.090;2023-05-21T02:36:48;12.25;;;11.07;;
19802;SDS011;66074;50.764;6.090;2023-05-21T02:39:16;13.05;;;11.88;;
19802;SDS011;66074;50.764;6.090;2023-05-21T02:41:44;13.63;;;10.93;;
19802;SDS011;66074;50.764;6.090;2023-05-21T02:44:10;12.98;;;11.88;;
19802;SDS011;66074;50.764;6.090;2023-05-21T02:46:36;13.68;;;11.80;;
19802;SDS011;66074;50.764;6.090;2023-05-21T02:49:02;12.40;;;11.30;;
19802;SDS011;66074;50.764;6.090;2023-05-21T02:51:27;12.63;;;11.35;;
19802;SDS011;66074;50.764;6.090;2023-05-21T02:53:53;12.88;;;11.48;;
19802;SDS011;66074;50.764;6.090;2023-05-21T02:56:19;13.25;;;11.90;;
19802;SDS011;66074;50.764;6.090;2023-05-21T02:58:44;12.90;;;11.63;;
19802;SDS011;66074;50.764;6.090;2023-05-21T03:01:10;13.20;;;12.05;;
19802;SDS011;66074;50.764;6.090;2023-05-21T03:03:36;12.60;;;11.45;;
19802;SDS011;66074;50.764;6.090;2023-05-21T03:06:01;12.90;;;11.80;;
19802;SDS011;66074;50.764;6.090;2023-05-21T03:08:27;12.80;;;11.70;;
19802;SDS011;66074;50.764;6.090;2023-05-21T03:10:53;12.77;;;11.60;;
19802;SDS011;66074;50.764;6.090;2023-05-21T03:13:19;12.07;;;10.95;;
19802;SDS011;66074;50.764;6.090;2023-05-21T03:15:45;13.60;;;12.23;;
19802;SDS011;66074;50.764;6.090;2023-05-21T03:18:11;12.07;;;10.95;;
19802;SDS011;66074;50.764;6.090;2023-05-21T03:20:37;13.95;;;12.68;;
19802;SDS011;66074;50.764;6.090;2023-05-21T03:23:07;13.18;;;12.00;;
19802;SDS011;66074;50.764;6.090;2023-05-21T03:25:33;14.30;;;12.98;;
19802;SDS011;66074;50.764;6.090;2023-05-21T03:28:00;12.75;;;11.70;;
19802;SDS011;66074;50.764;6.090;2023-05-21T03:30:26;13.32;;;12.02;;
19802;SDS011;66074;50.764;6.090;2023-05-21T03:32:52;13.38;;;12.27;;
19802;SDS011;66074;50.764;6.090;2023-05-21T03:35:17;12.63;;;11.50;;
19802;SDS011;66074;50.764;6.090;2023-05-21T03:37:43;13.32;;;11.95;;
19802;SDS011;66074;50.764;6.090;2023-05-21T03:40:09;12.43;;;11.32;;
19802;SDS011;66074;50.764;6.090;2023-05-21T03:42:35;13.88;;;12.68;;
19802;SDS011;66074;50.764;6.090;2023-05-21T03:45:01;13.13;;;11.93;;
19802;SDS011;66074;50.764;6.090;2023-05-21T03:47:27;15.05;;;13.65;;
19802;SDS011;66074;50.764;6.090;2023-05-21T03:49:53;13.05;;;11.85;;
19802;SDS011;66074;50.764;6.090;2023-05-21T03:52:19;14.00;;;12.63;;
19802;SDS011;66074;50.764;6.090;2023-05-21T03:54:44;14.55;;;13.07;;
19802;SDS011;66074;50.764;6.090;2023-05-21T03:57:10;14.07;;;12.85;;
19802;SDS011;66074;50.764;6.090;2023-05-21T03:59:35;14.35;;;13.02;;
19802;SDS011;66074;50.764;6.090;2023-05-21T04:02:01;14.05;;;12.75;;
19802;SDS011;66074;50.764;6.090;2023-05-21T04:04:27;13.90;;;12.70;;
19802;SDS011;66074;50.764;6.090;2023-05-21T04:06:53;13.40;;;12.20;;
19802;SDS011;66074;50.764;6.090;2023-05-21T04:09:19;13.88;;;12.68;;
19802;SDS011;66074;50.764;6.090;2023-05-21T04:11:45;13.35;;;12.15;;
19802;SDS011;66074;50.764;6.090;2023-05-21T04:14:11;15.65;;;14.18;;
19802;SDS011;66074;50.764;6.090;2023-05-21T04:16:38;16.15;;;13.10;;
19802;SDS011;66074;50.764;6.090;2023-05-21T04:19:04;13.10;;;12.00;;
19802;SDS011;66074;50.764;6.090;2023-05-21T04:21:30;13.60;;;12.40;;
19802;SDS011;66074;50.764;6.090;2023-05-21T04:23:56;13.15;;;11.90;;
19802;SDS011;66074;50.764;6.090;2023-05-21T04:26:22;13.20;;;11.93;;
19802;SDS011;66074;50.764;6.090;2023-05-21T04:28:49;13.18;;;12.02;;
19802;SDS011;66074;50.764;6.090;2023-05-21T04:31:15;12.68;;;11.48;;
19802;SDS011;66074;50.764;6.090;2023-05-21T04:33:40;12.80;;;11.70;;
19802;SDS011;66074;50.764;6.090;2023-05-21T04:36:09;12.40;;;11.20;;
19802;SDS011;66074;50.764;6.090;2023-05-21T04:38:35;11.55;;;10.52;;
19802;SDS011;66074;50.764;6.090;2023-05-21T04:41:01;13.02;;;11.80;;
19802;SDS011;66074;50.764;6.090;2023-05-21T04:43:30;13.18;;;11.88;;
19802;SDS011;66074;50.764;6.090;2023-05-21T04:45:56;12.30;;;11.10;;
19802;SDS011;66074;50.764;6.090;2023-05-21T04:48:22;14.05;;;12.70;;
19802;SDS011;66074;50.764;6.090;2023-05-21T04:50:48;13.57;;;12.35;;
19802;SDS011;66074;50.764;6.090;2023-05-21T04:53:15;12.43;;;11.38;;
19802;SDS011;66074;50.764;6.090;2023-05-21T04:55:41;13.73;;;12.52;;
19802;SDS011;66074;50.764;6.090;2023-05-21T04:58:07;12.77;;;11.48;;
19802;SDS011;66074;50.764;6.090;2023-05-21T05:00:35;13.52;;;12.23;;
19802;SDS011;66074;50.764;6.090;2023-05-21T05:03:01;11.93;;;10.75;;
19802;SDS011;66074;50.764;6.090;2023-05-21T05:05:27;12.82;;;11.57;;
19802;SDS011;66074;50.764;6.090;2023-05-21T05:07:53;12.45;;;11.43;;
19802;SDS011;66074;50.764;6.090;2023-05-21T05:10:19;12.55;;;11.32;;
19802;SDS011;66074;50.764;6.090;2023-05-21T05:12:44;12.35;;;11.27;;
19802;SDS011;66074;50.764;6.090;2023-05-21T05:15:10;12.93;;;11.55;;
19802;SDS011;66074;50.764;6.090;2023-05-21T05:17:36;12.77;;;11.57;;
19802;SDS011;66074;50.764;6.090;2023-05-21T05:20:01;12.27;;;11.07;;
19802;SDS011;66074;50.764;6.090;2023-05-21T05:22:27;13.52;;;12.27;;
19802;SDS011;66074;50.764;6.090;2023-05-21T05:24:53;12.10;;;11.00;;
19802;SDS011;66074;50.764;6.090;2023-05-21T05:27:18;11.07;;;9.98;;
19802;SDS011;66074;50.764;6.090;2023-05-21T05:29:44;11.48;;;10.38;;
19802;SDS011;66074;50.764;6.090;2023-05-21T05:32:10;11.35;;;10.35;;
19802;SDS011;66074;50.764;6.090;2023-05-21T05:34:36;12.13;;;10.85;;
19802;SDS011;66074;50.764;6.090;2023-05-21T05:37:02;11.40;;;10.40;;
19802;SDS011;66074;50.764;6.090;2023-05-21T05:39:28;12.15;;;10.82;;
19802;SDS011;66074;50.764;6.090;2023-05-21T05:41:53;10.48;;;9.55;;
19802;SDS011;66074;50.764;6.090;2023-05-21T05:44:19;10.90;;;9.75;;
19802;SDS011;66074;50.764;6.090;2023-05-21T05:46:45;11.35;;;10.18;;
19802;SDS011;66074;50.764;6.090;2023-05-21T05:49:11;10.65;;;9.55;;
19802;SDS011;66074;50.764;6.090;2023-05-21T05:51:37;11.57;;;10.57;;
19802;SDS011;66074;50.764;6.090;2023-05-21T05:54:03;9.60;;;8.77;;
19802;SDS011;66074;50.764;6.090;2023-05-21T05:56:29;11.90;;;10.20;;
19802;SDS011;66074;50.764;6.090;2023-05-21T05:58:54;9.70;;;8.80;;
19802;SDS011;66074;50.764;6.090;2023-05-21T06:01:20;10.00;;;9.00;;
19802;SDS011;66074;50.764;6.090;2023-05-21T06:03:48;10.93;;;9.30;;
19802;SDS011;66074;50.764;6.090;2023-05-21T06:06:14;9.75;;;8.88;;
19802;SDS011;66074;50.764;6.090;2023-05-21T06:08:41;10.95;;;9.90;;
19802;SDS011;66074;50.764;6.090;2023-05-21T06:11:06;10.10;;;9.30;;
19802;SDS011;66074;50.764;6.090;2023-05-21T06:13:33;10.25;;;9.27;;
19802;SDS011;66074;50.764;6.090;2023-05-21T06:15:59;9.52;;;8.63;;
19802;SDS011;66074;50.764;6.090;2023-05-21T06:18:24;9.45;;;8.60;;
19802;SDS011;66074;50.764;6.090;2023-05-21T06:20:50;8.88;;;8.15;;
19802;SDS011;66074;50.764;6.090;2023-05-21T06:23:16;8.75;;;8.05;;
19802;SDS011;66074;50.764;6.090;2023-05-21T06:25:41;9.27;;;8.43;;
19802;SDS011;66074;50.764;6.090;2023-05-21T06:28:07;8.93;;;8.18;;
19802;SDS011;66074;50.764;6.090;2023-05-21T06:30:32;8.60;;;7.90;;
19802;SDS011;66074;50.764;6.090;2023-05-21T06:32:58;9.15;;;8.35;;
19802;SDS011;66074;50.764;6.090;2023-05-21T06:35:23;8.60;;;7.80;;
19802;SDS011;66074;50.764;6.090;2023-05-21T06:37:49;9.02;;;8.18;;
19802;SDS011;66074;50.764;6.090;2023-05-21T06:40:15;8.32;;;7.72;;
19802;SDS011;66074;50.764;6.090;2023-05-21T06:42:40;8.32;;;7.60;;
19802;SDS011;66074;50.764;6.090;2023-05-21T06:45:06;7.93;;;7.28;;
19802;SDS011;66074;50.764;6.090;2023-05-21T06:47:32;8.52;;;7.72;;
19802;SDS011;66074;50.764;6.090;2023-05-21T06:49:58;8.70;;;8.00;;
19802;SDS011;66074;50.764;6.090;2023-05-21T06:52:24;9.00;;;7.95;;
19802;SDS011;66074;50.764;6.090;2023-05-21T06:54:50;8.63;;;7.82;;
19802;SDS011;66074;50.764;6.090;2023-05-21T06:57:16;8.60;;;7.90;;
19802;SDS011;66074;50.764;6.090;2023-05-21T06:59:42;8.80;;;8.00;;
19802;SDS011;66074;50.764;6.090;2023-05-21T07:02:08;9.10;;;8.30;;
19802;SDS011;66074;50.764;6.090;2023-05-21T07:04:33;8.68;;;7.90;;
19802;SDS011;66074;50.764;6.090;2023-05-21T07:06:59;8.13;;;7.32;;
19802;SDS011;66074;50.764;6.090;2023-05-21T07:09:27;8.30;;;7.60;;
19802;SDS011;66074;50.764;6.090;2023-05-21T07:11:53;8.30;;;7.60;;
19802;SDS011;66074;50.764;6.090;2023-05-21T07:14:18;9.13;;;7.95;;
19802;SDS011;66074;50.764;6.090;2023-05-21T07:16:44;9.07;;;8.00;;
19802;SDS011;66074;50.764;6.090;2023-05-21T07:19:10;7.85;;;7.15;;
19802;SDS011;66074;50.764;6.090;2023-05-21T07:21:35;8.68;;;7.88;;
19802;SDS011;66074;50.764;6.090;2023-05-21T07:24:01;8.65;;;7.63;;
19802;SDS011;66074;50.764;6.090;2023-05-21T07:26:26;8.45;;;7.60;;
19802;SDS011;66074;50.764;6.090;2023-05-21T07:28:52;10.60;;;8.20;;
19802;SDS011;66074;50.764;6.090;2023-05-21T07:31:18;9.43;;;8.63;;
19802;SDS011;66074;50.764;6.090;2023-05-21T07:33:43;9.90;;;8.90;;
19802;SDS011;66074;50.764;6.090;2023-05-21T07:36:09;8.82;;;8.13;;
19802;SDS011;66074;50.764;6.090;2023-05-21T07:38:35;8.95;;;8.25;;
19802;SDS011;66074;50.764;6.090;2023-05-21T07:41:00;9.63;;;8.80;;
19802;SDS011;66074;50.764;6.090;2023-05-21T07:43:26;10.00;;;9.10;;
19802;SDS011;66074;50.764;6.090;2023-05-21T07:45:51;9.40;;;8.63;;
19802;SDS011;66074;50.764;6.090;2023-05-21T07:48:17;8.15;;;7.45;;
19802;SDS011;66074;50.764;6.090;2023-05-21T07:50:43;8.73;;;8.02;;
19802;SDS011;66074;50.764;6.090;2023-05-21T07:53:09;8.85;;;7.95;;
19802;SDS011;66074;50.764;6.090;2023-05-21T07:55:34;8.13;;;7.32;;
19802;SDS011;66074;50.764;6.090;2023-05-21T07:58:00;8.40;;;7.60;;
19802;SDS011;66074;50.764;6.090;2023-05-21T08:00:26;8.50;;;7.70;;
19802;SDS011;66074;50.764;6.090;2023-05-21T08:02:52;9.25;;;8.45;;
19802;SDS011;66074;50.764;6.090;2023-05-21T08:05:17;7.88;;;7.28;;
19802;SDS011;66074;50.764;6.090;2023-05-21T08:07:45;8.32;;;7.63;;
19802;SDS011;66074;50.764;6.090;2023-05-21T08:10:11;9.38;;;8.63;;
19802;SDS011;66074;50.764;6.090;2023-05-21T08:12:36;9.57;;;8.63;;
19802;SDS011;66074;50.764;6.090;2023-05-21T08:15:02;9.65;;;8.85;;
19802;SDS011;66074;50.764;6.090;2023-05-21T08:17:28;9.30;;;8.45;;
19802;SDS011;66074;50.764;6.090;2023-05-21T08:19:53;9.02;;;8.32;;
19802;SDS011;66074;50.764;6.090;2023-05-21T08:22:19;9.27;;;8.38;;
19802;SDS011;66074;50.764;6.090;2023-05-21T08:24:44;9.48;;;8.60;;
19802;SDS011;66074;50.764;6.090;2023-05-21T08:27:10;9.75;;;8.95;;
19802;SDS011;66074;50.764;6.090;2023-05-21T08:29:36;8.63;;;7.93;;
19802;SDS011;66074;50.764;6.090;2023-05-21T08:32:02;9.90;;;9.18;;
19802;SDS011;66074;50.764;6.090;2023-05-21T08:34:27;9.13;;;8.32;;
19802;SDS011;66074;50.764;6.090;2023-05-21T08:36:53;9.75;;;8.75;;
19802;SDS011;66074;50.764;6.090;2023-05-21T08:39:19;9.18;;;8.38;;
19802;SDS011;66074;50.764;6.090;2023-05-21T08:41:45;9.70;;;8.73;;
19802;SDS011;66074;50.764;6.090;2023-05-21T08:44:13;8.52;;;7.82;;
19802;SDS011;66074;50.764;6.090;2023-05-21T08:46:41;10.10;;;9.05;;
19802;SDS011;66074;50.764;6.090;2023-05-21T08:49:13;8.50;;;7.70;;
19802;SDS011;66074;50.764;6.090;2023-05-21T08:51:43;9.93;;;9.13;;
19802;SDS011;66074;50.764;6.090;2023-05-21T08:54:09;9.43;;;8.63;;
19802;SDS011;66074;50.764;6.090;2023-05-21T08:56:37;9.07;;;8.27;;
19802;SDS011;66074;50.764;6.090;2023-05-21T08:59:09;12.57;;;8.90;;
19802;SDS011;66074;50.764;6.090;2023-05-21T09:01:35;8.85;;;8.10;;
19802;SDS011;66074;50.764;6.090;2023-05-21T09:04:03;8.95;;;8.15;;
19802;SDS011;66074;50.764;6.090;2023-05-21T09:06:29;9.10;;;8.35;;
19802;SDS011;66074;50.764;6.090;2023-05-21T09:09:02;9.82;;;8.90;;
19802;SDS011;66074;50.764;6.090;2023-05-21T09:11:34;9.95;;;9.05;;
19802;SDS011;66074;50.764;6.090;2023-05-21T09:14:00;9.05;;;8.35;;
19802;SDS011;66074;50.764;6.090;2023-05-21T09:16:26;10.00;;;9.02;;
19802;SDS011;66074;50.764;6.090;2023-05-21T09:18:52;10.00;;;9.05;;
19802;SDS011;66074;50.764;6.090;2023-05-21T09:21:27;10.10;;;9.10;;
19802;SDS011;66074;50.764;6.090;2023-05-21T09:23:58;10.80;;;9.07;;
19802;SDS011;66074;50.764;6.090;2023-05-21T09:26:24;9.70;;;8.80;;
19802;SDS011;66074;50.764;6.090;2023-05-21T09:28:51;10.23;;;9.43;;
19802;SDS011;66074;50.764;6.090;2023-05-21T09:31:21;9.63;;;8.73;;
19802;SDS011;66074;50.764;6.090;2023-05-21T09:33:48;10.43;;;9.48;;
19802;SDS011;66074;50.764;6.090;2023-05-21T09:36:16;9.98;;;9.18;;
19802;SDS011;66074;50.764;6.090;2023-05-21T09:38:44;10.30;;;9.38;;
19802;SDS011;66074;50.764;6.090;2023-05-21T09:41:10;9.57;;;8.68;;
19802;SDS011;66074;50.764;6.090;2023-05-21T09:43:36;9.98;;;9.07;;
19802;SDS011;66074;50.764;6.090;2023-05-21T09:46:01;10.70;;;9.60;;
19802;SDS011;66074;50.764;6.090;2023-05-21T09:48:33;10.20;;;9.40;;
19802;SDS011;66074;50.764;6.090;2023-05-21T09:53:43;10.25;;;9.25;;
19802;SDS011;66074;50.764;6.090;2023-05-21T09:56:12;10.45;;;9.45;;
19802;SDS011;66074;50.764;6.090;2023-05-21T09:58:38;9.75;;;8.75;;
19802;SDS011;66074;50.764;6.090;2023-05-21T10:01:04;10.50;;;9.52;;
19802;SDS011;66074;50.764;6.090;2023-05-21T10:03:31;11.05;;;10.05;;
19802;SDS011;66074;50.764;6.090;2023-05-21T10:06:00;10.30;;;9.38;;
19802;SDS011;66074;50.764;6.090;2023-05-21T10:08:26;10.20;;;9.30;;
19802;SDS011;66074;50.764;6.090;2023-05-21T10:10:54;10.93;;;9.93;;
19802;SDS011;66074;50.764;6.090;2023-05-21T10:13:20;13.88;;;9.40;;
19802;SDS011;66074;50.764;6.090;2023-05-21T10:15:49;9.70;;;8.90;;
19802;SDS011;66074;50.764;6.090;2023-05-21T10:18:22;11.85;;;9.70;;
19802;SDS011;66074;50.764;6.090;2023-05-21T10:20:48;10.57;;;9.27;;
19802;SDS011;66074;50.764;6.090;2023-05-21T10:23:15;11.18;;;10.27;;
19802;SDS011;66074;50.764;6.090;2023-05-21T10:25:42;11.35;;;10.45;;
19802;SDS011;66074;50.764;6.090;2023-05-21T10:28:09;10.63;;;9.63;;
19802;SDS011;66074;50.764;6.090;2023-05-21T10:30:35;12.10;;;10.40;;
19802;SDS011;66074;50.764;6.090;2023-05-21T10:33:02;10.52;;;9.73;;
19802;SDS011;66074;50.764;6.090;2023-05-21T10:35:28;11.27;;;10.27;;
19802;SDS011;66074;50.764;6.090;2023-05-21T10:37:55;12.07;;;11.07;;
19802;SDS011;66074;50.764;6.090;2023-05-21T10:40:23;11.73;;;10.73;;
19802;SDS011;66074;50.764;6.090;2023-05-21T10:43:01;11.00;;;9.90;;
19802;SDS011;66074;50.764;6.090;2023-05-21T10:59:32;13.32;;;12.13;;
19802;SDS011;66074;50.764;6.090;2023-05-21T11:02:00;12.68;;;11.68;;
19802;SDS011;66074;50.764;6.090;2023-05-21T11:04:27;13.13;;;11.82;;
19802;SDS011;66074;50.764;6.090;2023-05-21T11:06:53;12.52;;;11.43;;
19802;SDS011;66074;50.764;6.090;2023-05-21T11:09:20;12.70;;;11.50;;
19802;SDS011;66074;50.764;6.090;2023-05-21T11:11:55;12.52;;;11.43;;
19802;SDS011;66074;50.764;6.090;2023-05-21T11:14:26;13.15;;;11.73;;
19802;SDS011;66074;50.764;6.090;2023-05-21T11:16:59;12.85;;;11.75;;
19802;SDS011;66074;50.764;6.090;2023-05-21T11:19:34;12.55;;;11.55;;
19802;SDS011;66074;50.764;6.090;2023-05-21T11:22:04;13.10;;;11.95;;
19802;SDS011;66074;50.764;6.090;2023-05-21T11:24:48;12.60;;;11.60;;
19802;SDS011;66074;50.764;6.090;2023-05-21T11:27:29;13.50;;;12.50;;
19802;SDS011;66074;50.764;6.090;2023-05-21T11:30:05;13.63;;;12.52;;
19802;SDS011;66074;50.764;6.090;2023-05-21T11:35:35;13.32;;;12.20;;
19802;SDS011;66074;50.764;6.090;2023-05-21T11:38:03;13.85;;;12.75;;
19802;SDS011;66074;50.764;6.090;2023-05-21T11:40:33;12.23;;;11.13;;
19802;SDS011;66074;50.764;6.090;2023-05-21T11:42:59;14.63;;;13.45;;
19802;SDS011;66074;50.764;6.090;2023-05-21T11:45:29;14.65;;;13.25;;
19802;SDS011;66074;50.764;6.090;2023-05-21T11:47:56;15.07;;;13.68;;
19802;SDS011;66074;50.764;6.090;2023-05-21T11:50:22;13.80;;;12.57;;
19802;SDS011;66074;50.764;6.090;2023-05-21T11:52:48;13.45;;;12.23;;
19802;SDS011;66074;50.764;6.090;2023-05-21T11:55:14;13.25;;;12.15;;
19802;SDS011;66074;50.764;6.090;2023-05-21T11:57:45;14.63;;;13.52;;
19802;SDS011;66074;50.764;6.090;2023-05-21T12:00:15;13.88;;;12.77;;
19802;SDS011;66074;50.764;6.090;2023-05-21T12:02:45;12.82;;;11.77;;
19802;SDS011;66074;50.764;6.090;2023-05-21T12:05:15;14.73;;;13.38;;
19802;SDS011;66074;50.764;6.090;2023-05-21T12:07:41;14.13;;;12.93;;
19802;SDS011;66074;50.764;6.090;2023-05-21T12:10:10;13.38;;;12.27;;
19802;SDS011;66074;50.764;6.090;2023-05-21T12:12:36;13.90;;;12.57;;
19802;SDS011;66074;50.764;6.090;2023-05-21T12:15:01;14.25;;;13.00;;
19802;SDS011;66074;50.764;6.090;2023-05-21T12:17:28;14.23;;;13.02;;
19802;SDS011;66074;50.764;6.090;2023-05-21T12:19:55;13.07;;;11.88;;
19802;SDS011;66074;50.764;6.090;2023-05-21T12:22:22;13.52;;;12.43;;
19802;SDS011;66074;50.764;6.090;2023-05-21T12:24:49;14.50;;;13.23;;
19802;SDS011;66074;50.764;6.090;2023-05-21T12:27:15;14.85;;;13.63;;
19802;SDS011;66074;50.764;6.090;2023-05-21T12:29:42;14.52;;;13.32;;
19802;SDS011;66074;50.764;6.090;2023-05-21T12:32:09;13.52;;;12.25;;
19802;SDS011;66074;50.764;6.090;2023-05-21T12:37:09;14.20;;;12.63;;
19802;SDS011;66074;50.764;6.090;2023-05-21T12:39:48;13.90;;;12.80;;
19802;SDS011;66074;50.764;6.090;2023-05-21T12:42:15;14.55;;;12.65;;
19802;SDS011;66074;50.764;6.090;2023-05-21T12:44:48;14.43;;;13.18;;
19802;SDS011;66074;50.764;6.090;2023-05-21T12:47:15;15.15;;;13.85;;
19802;SDS011;66074;50.764;6.090;2023-05-21T12:49:42;13.43;;;12.32;;
19802;SDS011;66074;50.764;6.090;2023-05-21T12:52:12;12.98;;;11.77;;
19802;SDS011;66074;50.764;6.090;2023-05-21T12:54:40;13.50;;;12.25;;
19802;SDS011;66074;50.764;6.090;2023-05-21T12:57:20;16.08;;;14.77;;
19802;SDS011;66074;50.764;6.090;2023-05-21T12:59:48;12.38;;;11.35;;
19802;SDS011;66074;50.764;6.090;2023-05-21T13:04:52;12.68;;;11.50;;
19802;SDS011;66074;50.764;6.090;2023-05-21T13:07:23;12.05;;;11.00;;
19802;SDS011;66074;50.764;6.090;2023-05-21T13:09:50;12.35;;;11.35;;
19802;SDS011;66074;50.764;6.090;2023-05-21T13:12:17;12.63;;;11.52;;
19802;SDS011;66074;50.764;6.090;2023-05-21T13:14:44;13.88;;;12.68;;
19802;SDS011;66074;50.764;6.090;2023-05-21T13:17:10;12.77;;;11.68;;
19802;SDS011;66074;50.764;6.090;2023-05-21T13:19:35;13.00;;;11.82;;
19802;SDS011;66074;50.764;6.090;2023-05-21T13:22:01;11.90;;;10.90;;
19802;SDS011;66074;50.764;6.090;2023-05-21T13:24:27;12.30;;;11.23;;
19802;SDS011;66074;50.764;6.090;2023-05-21T13:26:53;11.68;;;10.75;;
19802;SDS011;66074;50.764;6.090;2023-05-21T13:29:19;12.57;;;11.40;;
19802;SDS011;66074;50.764;6.090;2023-05-21T13:31:44;12.38;;;11.20;;
19802;SDS011;66074;50.764;6.090;2023-05-21T13:34:10;12.27;;;11.15;;
19802;SDS011;66074;50.764;6.090;2023-05-21T13:36:36;12.40;;;11.23;;
19802;SDS011;66074;50.764;6.090;2023-05-21T13:39:02;11.77;;;10.68;;
19802;SDS011;66074;50.764;6.090;2023-05-21T13:41:28;11.77;;;10.88;;
19802;SDS011;66074;50.764;6.090;2023-05-21T13:43:54;12.13;;;11.13;;
19802;SDS011;66074;50.764;6.090;2023-05-21T13:46:19;13.18;;;12.07;;
19802;SDS011;66074;50.764;6.090;2023-05-21T13:48:45;13.05;;;11.95;;
19802;SDS011;66074;50.764;6.090;2023-05-21T13:51:11;12.82;;;11.77;;
19802;SDS011;66074;50.764;6.090;2023-05-21T13:53:36;12.45;;;11.45;;
19802;SDS011;66074;50.764;6.090;2023-05-21T13:56:03;12.38;;;11.45;;
19802;SDS011;66074;50.764;6.090;2023-05-21T13:58:29;11.20;;;10.30;;
19802;SDS011;66074;50.764;6.090;2023-05-21T14:00:58;11.43;;;10.52;;
19802;SDS011;66074;50.764;6.090;2023-05-21T14:03:27;12.43;;;11.43;;
19802;SDS011;66074;50.764;6.090;2023-05-21T14:05:54;14.57;;;13.23;;
19802;SDS011;66074;50.764;6.090;2023-05-21T14:08:21;13.05;;;11.95;;
19802;SDS011;66074;50.764;6.090;2023-05-21T14:10:47;12.27;;;11.27;;
19802;SDS011;66074;50.764;6.090;2023-05-21T14:13:13;13.05;;;11.93;;
19802;SDS011;66074;50.764;6.090;2023-05-21T14:15:42;13.30;;;12.30;;
19802;SDS011;66074;50.764;6.090;2023-05-21T14:18:08;12.32;;;11.30;;
19802;SDS011;66074;50.764;6.090;2023-05-21T14:20:36;11.38;;;10.27;;
19802;SDS011;66074;50.764;6.090;2023-05-21T14:23:03;10.65;;;9.85;;
19802;SDS011;66074;50.764;6.090;2023-05-21T14:25:29;10.80;;;9.90;;
19802;SDS011;66074;50.764;6.090;2023-05-21T14:27:54;10.60;;;9.80;;
19802;SDS011;66074;50.764;6.090;2023-05-21T14:30:20;9.82;;;9.02;;
19802;SDS011;66074;50.764;6.090;2023-05-21T14:32:46;9.90;;;9.10;;
19802;SDS011;66074;50.764;6.090;2023-05-21T14:35:12;10.45;;;9.65;;
19802;SDS011;66074;50.764;6.090;2023-05-21T14:37:37;10.07;;;9.18;;
19802;SDS011;66074;50.764;6.090;2023-05-21T14:40:03;9.77;;;9.07;;
19802;SDS011;66074;50.764;6.090;2023-05-21T14:42:31;9.88;;;8.98;;
19802;SDS011;66074;50.764;6.090;2023-05-21T14:44:58;10.48;;;9.43;;
19802;SDS011;66074;50.764;6.090;2023-05-21T14:47:23;10.80;;;9.90;;
19802;SDS011;66074;50.764;6.090;2023-05-21T14:49:49;9.68;;;8.88;;
19802;SDS011;66074;50.764;6.090;2023-05-21T14:52:15;10.23;;;9.35;;
19802;SDS011;66074;50.764;6.090;2023-05-21T14:54:40;8.27;;;7.68;;
19802;SDS011;66074;50.764;6.090;2023-05-21T14:57:06;9.98;;;9.27;;